createdAt,value
2018-12-18T00:00:38.080Z,5.23
2018-12-18T00:03:05.703Z,6.40
2018-12-18T00:05:35.178Z,6.43
2018-12-18T00:08:03.056Z,6.30
2018-12-18T00:10:36.344Z,5.17
2018-12-18T00:13:04.385Z,6.77
2018-12-18T00:15:32.007Z,5.97
2018-12-18T00:18:05.249Z,6.23
2018-12-18T00:23:05.597Z,5.77
2018-12-18T00:25:33.390Z,5.47
2018-12-18T00:28:00.991Z,6.53
2018-12-18T00:30:28.677Z,6.03
2018-12-18T00:32:56.480Z,5.80
2018-12-18T00:35:24.102Z,6.67
2018-12-18T00:37:51.730Z,5.57
2018-12-18T00:40:20.771Z,5.57
2018-12-18T00:42:49.065Z,6.50
2018-12-18T00:45:16.881Z,5.60
2018-12-18T00:47:44.854Z,5.10
2018-12-18T00:50:12.501Z,5.90
2018-12-18T00:52:40.211Z,5.93
2018-12-18T00:55:08.582Z,6.47
2018-12-18T00:57:36.237Z,6.83
2018-12-18T01:00:05.037Z,6.60
2018-12-18T01:02:33.010Z,6.43
2018-12-18T01:05:00.613Z,6.47
2018-12-18T01:07:28.219Z,5.50
2018-12-18T01:09:55.908Z,6.30
2018-12-18T01:12:23.582Z,5.80
2018-12-18T01:14:51.170Z,6.03
2018-12-18T01:17:20.182Z,6.30
2018-12-18T01:19:48.426Z,5.73
2018-12-18T01:22:16.039Z,6.20
2018-12-18T01:24:43.871Z,7.30
2018-12-18T01:27:11.466Z,7.63
2018-12-18T01:29:39.083Z,5.67
2018-12-18T01:32:06.962Z,6.33
2018-12-18T01:34:34.853Z,6.43
2018-12-18T01:37:02.426Z,6.40
2018-12-18T01:39:30.415Z,6.57
2018-12-18T01:41:58.252Z,5.90
2018-12-18T01:44:25.864Z,6.87
2018-12-18T01:46:53.708Z,6.20
2018-12-18T01:49:21.318Z,6.30
2018-12-18T01:51:49.324Z,6.03
2018-12-18T01:54:17.192Z,6.97
2018-12-18T01:56:45.229Z,6.27
2018-12-18T01:59:13.765Z,5.70
2018-12-18T02:01:41.522Z,6.00
2018-12-18T02:04:09.181Z,6.63
2018-12-18T02:06:36.828Z,6.23
2018-12-18T02:09:06.031Z,5.97
2018-12-18T02:11:33.653Z,6.77
2018-12-18T02:14:01.290Z,6.60
2018-12-18T02:16:28.974Z,5.10
2018-12-18T02:18:56.579Z,6.47
2018-12-18T02:21:24.153Z,6.17
2018-12-18T02:23:52.158Z,5.53
2018-12-18T02:26:19.833Z,5.40
2018-12-18T02:28:47.805Z,6.27
2018-12-18T02:31:15.677Z,6.27
2018-12-18T02:33:43.548Z,5.47
2018-12-18T02:36:11.153Z,6.90
2018-12-18T02:38:38.872Z,6.30
2018-12-18T02:41:06.497Z,5.30
2018-12-18T02:43:34.176Z,5.47
2018-12-18T02:46:01.944Z,5.83
2018-12-18T02:48:29.725Z,6.17
2018-12-18T02:50:57.324Z,5.97
2018-12-18T02:53:25.120Z,4.97
2018-12-18T02:55:52.720Z,5.83
2018-12-18T02:58:20.325Z,5.70
2018-12-18T03:00:48.394Z,5.83
2018-12-18T03:03:16.283Z,6.30
2018-12-18T03:05:43.907Z,6.37
2018-12-18T03:08:11.965Z,5.57
2018-12-18T03:10:39.579Z,6.40
2018-12-18T03:13:07.187Z,5.27
2018-12-18T03:15:34.988Z,4.87
2018-12-18T03:18:02.708Z,6.00
2018-12-18T03:20:30.337Z,4.90
2018-12-18T03:22:58.141Z,6.20
2018-12-18T03:25:25.750Z,5.27
2018-12-18T03:27:53.390Z,4.97
2018-12-18T03:30:21.047Z,4.93
2018-12-18T03:32:49.273Z,4.50
2018-12-18T03:35:18.536Z,4.70
2018-12-18T03:37:46.261Z,4.30
2018-12-18T03:40:14.547Z,4.43
2018-12-18T03:42:42.113Z,4.57
2018-12-18T03:45:09.869Z,5.57
2018-12-18T03:47:37.590Z,5.10
2018-12-18T03:50:05.822Z,4.80
2018-12-18T03:52:33.606Z,4.37
2018-12-18T03:55:01.250Z,4.70
2018-12-18T03:57:28.892Z,4.73
2018-12-18T04:00:01.354Z,5.00
2018-12-18T04:02:28.952Z,4.93
2018-12-18T04:04:56.595Z,4.13
2018-12-18T04:07:24.431Z,4.80
2018-12-18T04:09:52.433Z,5.53
2018-12-18T04:12:22.226Z,4.87
2018-12-18T04:14:49.910Z,5.87
2018-12-18T04:17:18.863Z,5.13
2018-12-18T04:19:46.486Z,5.80
2018-12-18T04:22:14.293Z,5.90
2018-12-18T04:24:42.180Z,5.80
2018-12-18T04:27:09.784Z,6.03
2018-12-18T04:29:37.521Z,5.80
2018-12-18T04:32:05.109Z,5.60
2018-12-18T04:34:32.693Z,6.90
2018-12-18T04:37:00.646Z,6.13
2018-12-18T04:39:28.267Z,6.30
2018-12-18T04:41:55.887Z,6.10
2018-12-18T04:44:23.604Z,6.70
2018-12-18T04:46:52.535Z,6.60
2018-12-18T04:49:20.127Z,6.77
2018-12-18T04:51:48.850Z,6.87
2018-12-18T04:54:17.711Z,7.47
2018-12-18T04:56:45.373Z,6.10
2018-12-18T04:59:13.072Z,6.97
2018-12-18T05:01:40.790Z,6.93
2018-12-18T05:04:08.562Z,6.53
2018-12-18T05:06:36.529Z,7.10
2018-12-18T05:09:06.636Z,6.33
2018-12-18T05:11:34.253Z,6.23
2018-12-18T05:14:01.993Z,6.83
2018-12-18T05:16:29.615Z,7.00
2018-12-18T05:18:57.241Z,6.80
2018-12-18T05:21:25.068Z,8.23
2018-12-18T05:23:53.288Z,7.27
2018-12-18T05:26:20.903Z,6.53
2018-12-18T05:28:49.014Z,7.20
2018-12-18T05:31:16.720Z,8.00
2018-12-18T05:33:44.337Z,7.57
2018-12-18T05:36:12.159Z,8.47
2018-12-18T05:38:40.211Z,6.53
2018-12-18T05:41:07.812Z,8.00
2018-12-18T05:43:35.493Z,8.10
2018-12-18T05:46:03.105Z,7.80
2018-12-18T05:48:30.714Z,7.63
2018-12-18T05:50:58.429Z,6.80
2018-12-18T05:53:26.019Z,6.47
2018-12-18T05:55:54.226Z,7.20
2018-12-18T05:58:21.924Z,6.40
2018-12-18T06:00:49.804Z,6.30
2018-12-18T06:03:18.037Z,7.87
2018-12-18T06:05:45.836Z,7.83
2018-12-18T06:08:13.458Z,7.83
2018-12-18T06:10:41.315Z,7.60
2018-12-18T06:13:09.124Z,7.23
2018-12-18T06:15:36.709Z,7.37
2018-12-18T06:18:04.290Z,6.87
2018-12-18T06:20:32.219Z,7.23
2018-12-18T06:22:59.853Z,7.73
2018-12-18T06:25:27.455Z,8.53
2018-12-18T06:27:55.200Z,8.20
2018-12-18T06:30:23.037Z,8.23
2018-12-18T06:32:50.681Z,9.07
2018-12-18T06:35:18.925Z,8.20
2018-12-18T06:37:46.617Z,8.03
2018-12-18T06:40:14.406Z,7.90
2018-12-18T06:42:42.123Z,8.03
2018-12-18T06:45:09.703Z,8.40
2018-12-18T06:47:37.381Z,7.73
2018-12-18T06:50:05.553Z,7.13
2018-12-18T06:52:33.128Z,8.30
2018-12-18T06:55:00.743Z,8.57
2018-12-18T06:57:28.570Z,8.17
2018-12-18T06:59:56.226Z,8.20
2018-12-18T07:02:23.895Z,9.10
2018-12-18T07:04:51.739Z,9.10
2018-12-18T07:07:19.401Z,7.47
2018-12-18T07:09:47.101Z,7.67
2018-12-18T07:12:15.008Z,7.13
2018-12-18T07:14:42.664Z,7.03
2018-12-18T07:17:10.392Z,8.67
2018-12-18T07:19:38.276Z,8.40
2018-12-18T07:22:05.886Z,8.17
2018-12-18T07:24:33.483Z,8.23
2018-12-18T07:27:01.187Z,7.73
2018-12-18T07:29:28.778Z,7.50
2018-12-18T07:31:56.379Z,8.10
2018-12-18T07:34:24.205Z,9.37
2018-12-18T07:36:51.836Z,8.97
2018-12-18T07:39:19.444Z,6.87
2018-12-18T07:41:47.505Z,8.87
2018-12-18T07:44:15.243Z,9.57
2018-12-18T07:46:45.895Z,8.70
2018-12-18T07:49:13.772Z,8.70
2018-12-18T07:51:41.384Z,8.53
2018-12-18T07:54:09.009Z,8.87
2018-12-18T07:56:36.846Z,8.53
2018-12-18T07:59:04.447Z,9.30
2018-12-18T08:01:32.072Z,8.00
2018-12-18T08:03:59.797Z,8.10
2018-12-18T08:06:27.425Z,9.83
2018-12-18T08:08:55.685Z,8.90
2018-12-18T08:11:23.455Z,8.57
2018-12-18T08:13:51.182Z,8.97
2018-12-18T08:16:19.689Z,9.17
2018-12-18T08:18:49.382Z,8.30
2018-12-18T08:21:17.040Z,9.07
2018-12-18T08:23:44.674Z,8.93
2018-12-18T08:26:12.421Z,9.50
2018-12-18T08:28:40.069Z,10.07
2018-12-18T08:31:07.917Z,9.73
2018-12-18T08:33:35.782Z,9.13
2018-12-18T08:36:03.392Z,10.07
2018-12-18T08:38:31.056Z,10.07
2018-12-18T08:40:58.967Z,8.90
2018-12-18T08:43:26.871Z,10.60
2018-12-18T08:45:55.015Z,9.93
2018-12-18T08:48:22.851Z,10.17
2018-12-18T08:50:50.519Z,9.07
2018-12-18T08:53:19.440Z,9.47
2018-12-18T08:55:47.463Z,8.20
2018-12-18T08:58:15.135Z,8.97
2018-12-18T09:00:43.103Z,8.90
2018-12-18T09:03:10.824Z,9.23
2018-12-18T09:05:43.189Z,9.30
2018-12-18T09:08:08.083Z,9.73
2018-12-18T09:10:39.852Z,8.23
2018-12-18T09:13:05.737Z,9.80
2018-12-18T09:15:39.166Z,7.73
2018-12-18T09:18:06.773Z,9.30
2018-12-18T09:20:34.401Z,8.07
2018-12-18T09:23:02.302Z,9.57
2018-12-18T09:25:29.885Z,8.90
2018-12-18T09:27:57.478Z,8.60
2018-12-18T09:30:25.226Z,8.13
2018-12-18T09:32:52.847Z,8.27
2018-12-18T09:35:20.502Z,9.30
2018-12-18T09:37:51.026Z,8.17
2018-12-18T09:40:21.288Z,9.57
2018-12-18T09:42:57.354Z,8.40
2018-12-18T09:45:25.178Z,9.27
2018-12-18T09:47:52.792Z,9.70
2018-12-18T09:50:20.529Z,8.80
2018-12-18T09:52:49.021Z,8.70
2018-12-18T09:55:16.634Z,8.90
2018-12-18T09:57:50.050Z,8.93
2018-12-18T10:00:18.047Z,8.67
2018-12-18T10:02:45.719Z,9.07
2018-12-18T10:05:13.921Z,9.67
2018-12-18T10:07:41.509Z,10.27
2018-12-18T10:10:09.107Z,8.17
2018-12-18T10:12:42.622Z,9.10
2018-12-18T10:15:10.268Z,9.13
2018-12-18T10:17:37.884Z,10.47
2018-12-18T10:20:06.716Z,9.47
2018-12-18T10:22:34.320Z,9.70
2018-12-18T10:25:01.959Z,8.87
2018-12-18T10:27:29.705Z,9.63
2018-12-18T10:29:58.207Z,9.30
2018-12-18T10:32:25.824Z,9.00
2018-12-18T10:34:53.697Z,10.17
2018-12-18T10:37:21.323Z,8.53
2018-12-18T10:39:49.462Z,9.20
2018-12-18T10:42:17.472Z,10.13
2018-12-18T10:44:45.163Z,10.27
2018-12-18T10:47:13.454Z,8.47
2018-12-18T10:49:41.192Z,9.77
2018-12-18T10:52:08.812Z,10.10
2018-12-18T10:54:36.411Z,8.87
2018-12-18T10:57:04.215Z,8.93
2018-12-18T10:59:31.885Z,9.83
2018-12-18T11:02:01.514Z,9.87
2018-12-18T11:04:29.320Z,8.80
2018-12-18T11:06:57.549Z,10.40
2018-12-18T11:09:25.886Z,10.20
2018-12-18T11:11:53.743Z,10.50
2018-12-18T11:14:21.347Z,10.00
2018-12-18T11:16:50.024Z,9.83
2018-12-18T11:19:18.389Z,9.17
2018-12-18T11:21:45.991Z,8.77
2018-12-18T11:24:13.588Z,9.67
2018-12-18T11:26:41.442Z,9.43
2018-12-18T11:29:09.046Z,10.03
2018-12-18T11:31:36.730Z,8.43
2018-12-18T11:34:04.651Z,8.17
2018-12-18T11:36:32.273Z,9.00
2018-12-18T11:38:59.892Z,9.70
2018-12-18T11:41:27.613Z,8.97
2018-12-18T11:43:55.218Z,8.97
2018-12-18T11:46:22.936Z,9.17
2018-12-18T11:48:50.543Z,9.53
2018-12-18T11:51:18.721Z,8.43
2018-12-18T11:53:46.351Z,8.70
2018-12-18T11:56:13.950Z,7.63
2018-12-18T11:58:41.967Z,9.47
2018-12-18T12:01:09.598Z,8.80
2018-12-18T12:03:37.183Z,8.00
2018-12-18T12:06:05.057Z,9.03
2018-12-18T12:08:32.663Z,8.87
2018-12-18T12:11:00.290Z,10.53
2018-12-18T12:13:28.175Z,8.23
2018-12-18T12:15:55.848Z,8.47
2018-12-18T12:18:23.503Z,8.57
2018-12-18T12:20:51.264Z,8.80
2018-12-18T12:23:19.773Z,9.10
2018-12-18T12:25:48.258Z,8.70
2018-12-18T12:28:15.963Z,7.73
2018-12-18T12:30:43.553Z,8.30
2018-12-18T12:33:11.183Z,7.90
2018-12-18T12:35:38.886Z,8.63
2018-12-18T12:38:06.484Z,8.60
2018-12-18T12:40:34.096Z,9.10
2018-12-18T12:43:01.841Z,8.07
2018-12-18T12:45:29.573Z,9.03
2018-12-18T12:47:58.783Z,8.87
2018-12-18T12:50:26.723Z,9.10
2018-12-18T12:52:54.315Z,8.20
2018-12-18T12:55:21.906Z,7.33
2018-12-18T12:57:49.657Z,8.20
2018-12-18T13:00:19.020Z,9.27
2018-12-18T13:02:46.612Z,8.63
2018-12-18T13:05:14.372Z,8.23
2018-12-18T13:07:41.982Z,9.07
2018-12-18T13:10:09.627Z,8.20
2018-12-18T13:12:37.367Z,8.47
2018-12-18T13:15:05.395Z,10.10
2018-12-18T13:17:33.004Z,8.83
2018-12-18T13:20:00.719Z,9.23
2018-12-18T13:22:28.318Z,8.93
2018-12-18T13:24:55.989Z,8.03
2018-12-18T13:27:23.704Z,9.27
2018-12-18T13:29:51.501Z,8.40
2018-12-18T13:32:19.981Z,8.17
2018-12-18T13:34:48.084Z,9.50
2018-12-18T13:37:15.703Z,7.73
2018-12-18T13:39:43.291Z,8.63
2018-12-18T13:42:10.978Z,7.90
2018-12-18T13:44:38.582Z,8.03
2018-12-18T13:47:06.148Z,7.80
2018-12-18T13:49:33.943Z,8.07
2018-12-18T13:52:01.535Z,9.23
2018-12-18T13:54:31.063Z,7.37
2018-12-18T13:56:59.769Z,8.20
2018-12-18T13:59:27.447Z,9.10
2018-12-18T14:01:55.095Z,8.57
2018-12-18T14:04:22.960Z,8.27
2018-12-18T14:06:50.593Z,7.83
2018-12-18T14:09:18.904Z,8.63
2018-12-18T14:11:46.756Z,7.20
2018-12-18T14:14:14.415Z,7.97
2018-12-18T14:16:41.992Z,8.73
2018-12-18T14:19:09.857Z,8.53
2018-12-18T14:21:37.450Z,8.87
2018-12-18T14:24:05.050Z,7.50
2018-12-18T14:26:33.317Z,7.47
2018-12-18T14:29:00.915Z,7.40
2018-12-18T14:31:29.628Z,8.00
2018-12-18T14:33:57.576Z,8.07
2018-12-18T14:36:25.233Z,8.03
2018-12-18T14:38:52.840Z,7.93
2018-12-18T14:41:20.530Z,8.17
2018-12-18T14:43:48.409Z,8.57
2018-12-18T14:46:16.000Z,8.30
2018-12-18T14:48:43.853Z,7.60
2018-12-18T14:51:11.432Z,6.97
2018-12-18T14:53:39.037Z,7.77
2018-12-18T14:56:06.740Z,8.90
2018-12-18T14:58:34.393Z,8.37
2018-12-18T15:01:01.980Z,8.00
2018-12-18T15:03:29.793Z,8.20
2018-12-18T15:05:57.380Z,6.70
2018-12-18T15:08:25.017Z,8.43
2018-12-18T15:10:52.769Z,8.10
2018-12-18T15:13:20.378Z,8.90
2018-12-18T15:15:49.002Z,8.60
2018-12-18T15:18:16.688Z,9.43
2018-12-18T15:20:44.274Z,7.13
2018-12-18T15:23:11.859Z,7.97
2018-12-18T15:25:39.624Z,6.97
2018-12-18T15:28:07.273Z,7.47
2018-12-18T15:30:34.896Z,7.87
2018-12-18T15:33:02.603Z,7.30
2018-12-18T15:35:30.631Z,7.77
2018-12-18T15:37:58.408Z,7.50
2018-12-18T15:40:26.376Z,6.93
2018-12-18T15:42:53.950Z,8.27
2018-12-18T15:45:21.557Z,7.63
2018-12-18T15:47:50.086Z,6.73
2018-12-18T15:50:18.511Z,8.57
2018-12-18T15:52:46.952Z,6.93
2018-12-18T15:55:14.810Z,6.87
2018-12-18T15:57:42.396Z,8.00
2018-12-18T16:00:10.110Z,7.80
2018-12-18T16:02:37.795Z,7.50
2018-12-18T16:05:05.626Z,8.03
2018-12-18T16:07:33.286Z,6.73
2018-12-18T16:10:01.330Z,7.70
2018-12-18T16:12:28.949Z,7.27
2018-12-18T16:14:56.549Z,6.63
2018-12-18T16:17:24.293Z,8.30
2018-12-18T16:19:51.921Z,7.70
2018-12-18T16:22:20.249Z,8.10
2018-12-18T16:24:48.209Z,7.80
2018-12-18T16:27:15.804Z,8.23
2018-12-18T16:29:43.389Z,7.77
2018-12-18T16:32:11.170Z,8.63
2018-12-18T16:34:38.769Z,8.13
2018-12-18T16:37:06.375Z,8.40
2018-12-18T16:39:34.170Z,9.57
2018-12-18T16:42:02.198Z,8.83
2018-12-18T16:44:29.795Z,8.27
2018-12-18T16:46:57.510Z,8.37
2018-12-18T16:49:25.110Z,8.10
2018-12-18T16:51:52.669Z,8.33
2018-12-18T16:54:20.735Z,7.73
2018-12-18T16:56:49.406Z,7.07
2018-12-18T16:59:17.145Z,6.97
2018-12-18T17:01:45.447Z,7.63
2018-12-18T17:04:13.108Z,6.93
2018-12-18T17:06:40.717Z,7.00
2018-12-18T17:09:08.543Z,8.53
2018-12-18T17:11:37.222Z,7.67
2018-12-18T17:14:04.934Z,7.13
2018-12-18T17:16:32.621Z,8.23
2018-12-18T17:19:00.235Z,7.43
2018-12-18T17:21:28.857Z,6.93
2018-12-18T17:23:56.667Z,5.77
2018-12-18T17:26:24.264Z,6.20
2018-12-18T17:28:51.838Z,5.33
2018-12-18T17:31:19.743Z,5.93
2018-12-18T17:33:47.517Z,7.13
2018-12-18T17:36:15.318Z,7.33
2018-12-18T17:38:43.117Z,7.97
2018-12-18T17:41:10.725Z,6.77
2018-12-18T17:43:39.020Z,7.93
2018-12-18T17:46:06.804Z,8.37
2018-12-18T17:48:34.452Z,8.87
2018-12-18T17:51:05.793Z,8.43
2018-12-18T17:53:33.687Z,7.30
2018-12-18T17:56:01.744Z,6.77
2018-12-18T17:58:29.379Z,6.60
2018-12-18T18:00:57.220Z,6.97
2018-12-18T18:03:24.831Z,7.90
2018-12-18T18:05:52.655Z,7.63
2018-12-18T18:08:21.435Z,6.40
2018-12-18T18:10:49.794Z,7.83
2018-12-18T18:13:17.721Z,8.30
2018-12-18T18:15:45.725Z,8.90
2018-12-18T18:18:13.480Z,9.67
2018-12-18T18:20:41.169Z,8.27
2018-12-18T18:23:08.882Z,8.00
2018-12-18T18:25:36.598Z,8.03
2018-12-18T18:28:04.229Z,8.77
2018-12-18T18:30:31.939Z,9.27
2018-12-18T18:32:59.656Z,8.50
2018-12-18T18:35:27.397Z,8.57
2018-12-18T18:37:55.253Z,9.53
2018-12-18T18:40:22.845Z,7.33
2018-12-18T18:42:50.510Z,8.57
2018-12-18T18:45:18.847Z,7.97
2018-12-18T18:47:46.466Z,7.87
2018-12-18T18:50:14.227Z,8.40
2018-12-18T18:52:41.959Z,7.90
2018-12-18T18:55:09.582Z,8.47
2018-12-18T18:57:37.256Z,9.07
2018-12-18T19:00:06.443Z,7.87
2018-12-18T19:02:34.149Z,8.73
2018-12-18T19:05:02.724Z,9.30
2018-12-18T19:07:30.522Z,8.07
2018-12-18T19:09:58.129Z,8.73
2018-12-18T19:12:25.717Z,9.27
2018-12-18T19:14:53.660Z,9.17
2018-12-18T19:17:21.376Z,8.87
2018-12-18T19:19:49.532Z,8.30
2018-12-18T19:22:17.986Z,9.20
2018-12-18T19:24:45.655Z,8.10
2018-12-18T19:27:13.265Z,8.60
2018-12-18T19:29:41.125Z,7.70
2018-12-18T19:32:08.710Z,8.27
2018-12-18T19:34:36.301Z,8.63
2018-12-18T19:37:04.552Z,7.67
2018-12-18T19:39:32.512Z,8.53
2018-12-18T19:42:00.175Z,7.70
2018-12-18T19:44:27.929Z,8.37
2018-12-18T19:46:55.651Z,8.83
2018-12-18T19:49:23.239Z,8.23
2018-12-18T19:51:50.967Z,7.83
2018-12-18T19:54:18.850Z,9.03
2018-12-18T19:56:46.480Z,7.90
2018-12-18T19:59:14.324Z,8.07
2018-12-18T20:01:41.908Z,8.90
2018-12-18T20:04:09.534Z,9.17
2018-12-18T20:06:37.276Z,8.27
2018-12-18T20:09:06.692Z,8.17
2018-12-18T20:11:34.389Z,8.07
2018-12-18T20:14:02.135Z,8.87
2018-12-18T20:16:29.736Z,9.57
2018-12-18T20:18:58.378Z,7.37
2018-12-18T20:21:27.186Z,6.83
2018-12-18T20:23:54.958Z,7.43
2018-12-18T20:26:22.664Z,6.60
2018-12-18T20:28:50.608Z,7.97
2018-12-18T20:31:19.483Z,7.73
2018-12-18T20:33:47.098Z,6.30
2018-12-18T20:36:15.055Z,7.10
2018-12-18T20:38:42.677Z,6.43
2018-12-18T20:41:10.296Z,6.80
2018-12-18T20:43:38.141Z,6.57
2018-12-18T20:46:05.803Z,7.77
2018-12-18T20:48:33.414Z,7.27
2018-12-18T20:51:01.137Z,8.03
2018-12-18T20:53:30.128Z,8.37
2018-12-18T20:55:57.958Z,7.87
2018-12-18T20:58:25.923Z,7.23
2018-12-18T21:00:53.511Z,7.50
2018-12-18T21:03:21.095Z,7.50
2018-12-18T21:05:49.759Z,7.60
2018-12-18T21:08:23.198Z,7.07
2018-12-18T21:10:49.046Z,7.20
2018-12-18T21:13:22.371Z,7.90
2018-12-18T21:15:49.953Z,7.47
2018-12-18T21:18:17.750Z,7.80
2018-12-18T21:20:46.341Z,7.43
2018-12-18T21:23:13.985Z,6.87
2018-12-18T21:25:41.635Z,7.27
2018-12-18T21:28:09.467Z,7.77
2018-12-18T21:30:37.072Z,7.37
2018-12-18T21:33:04.814Z,7.87
2018-12-18T21:35:32.986Z,8.33
2018-12-18T21:38:00.645Z,8.57
2018-12-18T21:40:28.274Z,7.53
2018-12-18T21:42:56.073Z,7.53
2018-12-18T21:45:23.661Z,7.50
2018-12-18T21:47:51.245Z,7.90
2018-12-18T21:50:19.929Z,8.40
2018-12-18T21:52:47.593Z,7.03
2018-12-18T21:55:15.272Z,8.10
2018-12-18T21:57:43.069Z,7.93
2018-12-18T22:00:13.013Z,8.10
2018-12-18T22:02:40.822Z,8.77
2018-12-18T22:05:08.679Z,9.23
2018-12-18T22:07:36.293Z,7.67
2018-12-18T22:10:05.235Z,8.70
2018-12-18T22:12:32.974Z,8.17
2018-12-18T22:15:00.588Z,7.63
2018-12-18T22:17:28.187Z,8.20
2018-12-18T22:19:55.913Z,8.37
2018-12-18T22:22:23.547Z,8.57
2018-12-18T22:24:51.188Z,8.03
2018-12-18T22:27:19.320Z,7.50
2018-12-18T22:29:46.909Z,7.63
2018-12-18T22:32:14.521Z,7.57
2018-12-18T22:34:42.212Z,8.00
2018-12-18T22:37:09.855Z,9.13
2018-12-18T22:39:37.414Z,9.37
2018-12-18T22:42:05.797Z,9.00
2018-12-18T22:44:33.384Z,7.43
2018-12-18T22:47:00.997Z,7.23
2018-12-18T22:49:28.797Z,7.73
2018-12-18T22:51:56.362Z,9.77
2018-12-18T22:54:24.010Z,8.63
2018-12-18T22:56:51.754Z,8.27
2018-12-18T22:59:19.817Z,7.70
2018-12-18T23:01:47.518Z,7.80
2018-12-18T23:04:15.249Z,8.37
2018-12-18T23:06:43.019Z,9.50
2018-12-18T23:09:14.885Z,8.77
2018-12-18T23:11:42.758Z,8.27
2018-12-18T23:14:10.619Z,7.63
2018-12-18T23:16:38.202Z,8.77
2018-12-18T23:19:06.367Z,7.83
2018-12-18T23:21:34.088Z,8.40
2018-12-18T23:24:01.780Z,9.10
2018-12-18T23:26:29.481Z,9.13
2018-12-18T23:28:57.105Z,8.43
2018-12-18T23:31:24.849Z,8.23
2018-12-18T23:33:52.534Z,8.27
2018-12-18T23:36:20.116Z,8.60
2018-12-18T23:38:48.061Z,8.77
2018-12-18T23:41:15.751Z,8.83
2018-12-18T23:43:43.348Z,9.07
2018-12-18T23:46:10.969Z,8.03
2018-12-18T23:48:39.818Z,8.53
2018-12-18T23:51:07.978Z,9.87
2018-12-18T23:53:35.552Z,9.20
2018-12-18T23:56:03.429Z,7.87
2018-12-18T23:58:31.047Z,7.93
